sensor_id;sensor_type;location;lat;lon;timestamp;noise_LAeq;noise_LA_min;noise_LA_max;noise_LA01;noise_LA95
49215;Laerm;45943;53.148;8.204;2023-08-01T00:00:05;41.63;37.92;47.12;;
49215;Laerm;45943;53.148;8.204;2023-08-01T00:02:33;41.25;37.92;44.79;;
49215;Laerm;45943;53.148;8.204;2023-08-01T00:04:59;40.79;36.54;43.74;;
49215;Laerm;45943;53.148;8.204;2023-08-01T00:07:27;40.64;37.05;43.42;;
49215;Laerm;45943;53.148;8.204;2023-08-01T00:09:53;40.57;35.64;44.14;;
49215;Laerm;45943;53.148;8.204;2023-08-01T00:12:19;40.69;37.05;46.49;;
49215;Laerm;45943;53.148;8.204;2023-08-01T00:14:45;41.42;37.72;45.22;;
49215;Laerm;45943;53.148;8.204;2023-08-01T00:17:11;40.95;37.05;45.83;;
49215;Laerm;45943;53.148;8.204;2023-08-01T00:19:37;41.03;37.72;44.54;;
49215;Laerm;45943;53.148;8.204;2023-08-01T00:22:03;40.14;34.04;43.74;;
49215;Laerm;45943;53.148;8.204;2023-08-01T00:24:29;40.04;34.50;43.84;;
49215;Laerm;45943;53.148;8.204;2023-08-01T00:26:55;40.94;36.54;46.61;;
49215;Laerm;45943;53.148;8.204;2023-08-01T00:29:22;49.26;37.29;68.30;;
49215;Laerm;45943;53.148;8.204;2023-08-01T00:31:48;41.35;36.54;52.04;;
49215;Laerm;45943;53.148;8.204;2023-08-01T00:34:14;40.69;37.05;43.53;;
49215;Laerm;45943;53.148;8.204;2023-08-01T00:36:40;41.32;37.29;46.20;;
49215;Laerm;45943;53.148;8.204;2023-08-01T00:39:06;41.58;37.92;44.83;;
49215;Laerm;45943;53.148;8.204;2023-08-01T00:41:32;49.58;38.48;72.02;;
49215;Laerm;45943;53.148;8.204;2023-08-01T00:43:58;41.14;37.72;43.94;;
49215;Laerm;45943;53.148;8.204;2023-08-01T00:46:24;41.74;37.72;46.20;;
49215;Laerm;45943;53.148;8.204;2023-08-01T00:48:50;40.98;36.80;44.28;;
49215;Laerm;45943;53.148;8.204;2023-08-01T00:51:16;40.95;37.92;43.58;;
49215;Laerm;45943;53.148;8.204;2023-08-01T00:53:44;41.30;37.51;44.63;;
49215;Laerm;45943;53.148;8.204;2023-08-01T00:56:11;45.43;38.48;64.32;;
49215;Laerm;45943;53.148;8.204;2023-08-01T00:58:37;65.42;39.12;77.31;;
49215;Laerm;45943;53.148;8.204;2023-08-01T01:01:03;41.43;37.92;45.18;;
49215;Laerm;45943;53.148;8.204;2023-08-01T01:03:30;40.34;36.80;44.09;;
49215;Laerm;45943;53.148;8.204;2023-08-01T01:06:01;41.49;38.12;44.46;;
49215;Laerm;45943;53.148;8.204;2023-08-01T01:08:30;41.39;38.12;44.91;;
49215;Laerm;45943;53.148;8.204;2023-08-01T01:10:56;41.10;36.26;44.63;;
49215;Laerm;45943;53.148;8.204;2023-08-01T01:13:22;41.60;38.12;54.29;;
49215;Laerm;45943;53.148;8.204;2023-08-01T01:15:48;43.17;38.97;49.54;;
49215;Laerm;45943;53.148;8.204;2023-08-01T01:18:14;60.08;38.78;68.45;;
49215;Laerm;45943;53.148;8.204;2023-08-01T01:20:40;41.92;38.48;45.05;;
49215;Laerm;45943;53.148;8.204;2023-08-01T01:23:08;41.63;37.92;44.46;;
49215;Laerm;45943;53.148;8.204;2023-08-01T01:25:36;40.91;37.29;44.32;;
49215;Laerm;45943;53.148;8.204;2023-08-01T01:28:04;41.26;37.29;45.74;;
49215;Laerm;45943;53.148;8.204;2023-08-01T01:30:31;40.44;36.80;44.63;;
49215;Laerm;45943;53.148;8.204;2023-08-01T01:33:00;41.31;37.29;54.90;;
49215;Laerm;45943;53.148;8.204;2023-08-01T01:35:26;42.73;39.41;57.73;;
49215;Laerm;45943;53.148;8.204;2023-08-01T01:37:52;41.55;37.72;55.10;;
49215;Laerm;45943;53.148;8.204;2023-08-01T01:40:18;42.49;39.12;52.53;;
49215;Laerm;45943;53.148;8.204;2023-08-01T01:42:44;44.96;39.94;73.02;;
49215;Laerm;45943;53.148;8.204;2023-08-01T01:45:10;45.10;39.68;72.94;;
49215;Laerm;45943;53.148;8.204;2023-08-01T01:47:36;42.73;39.94;54.81;;
49215;Laerm;45943;53.148;8.204;2023-08-01T01:50:02;41.79;37.92;49.24;;
49215;Laerm;45943;53.148;8.204;2023-08-01T01:52:29;41.64;37.92;63.03;;
49215;Laerm;45943;53.148;8.204;2023-08-01T01:54:55;41.42;38.12;51.28;;
49215;Laerm;45943;53.148;8.204;2023-08-01T01:57:20;41.28;38.12;51.19;;
49215;Laerm;45943;53.148;8.204;2023-08-01T01:59:46;47.97;38.81;66.74;;
49215;Laerm;45943;53.148;8.204;2023-08-01T02:02:12;41.56;38.30;50.23;;
49215;Laerm;45943;53.148;8.204;2023-08-01T02:04:38;41.41;38.30;46.88;;
49215;Laerm;45943;53.148;8.204;2023-08-01T02:07:05;41.75;38.81;54.66;;
49215;Laerm;45943;53.148;8.204;2023-08-01T02:09:31;41.51;38.97;46.57;;
49215;Laerm;45943;53.148;8.204;2023-08-01T02:11:57;46.95;39.55;64.71;;
49215;Laerm;45943;53.148;8.204;2023-08-01T02:14:23;45.85;39.12;62.86;;
49215;Laerm;45943;53.148;8.204;2023-08-01T02:16:49;44.32;38.97;72.38;;
49215;Laerm;45943;53.148;8.204;2023-08-01T02:19:14;41.59;38.12;45.11;;
49215;Laerm;45943;53.148;8.204;2023-08-01T02:21:40;41.91;38.97;46.08;;
49215;Laerm;45943;53.148;8.204;2023-08-01T02:24:06;41.40;38.30;48.32;;
49215;Laerm;45943;53.148;8.204;2023-08-01T02:26:32;42.45;38.97;51.28;;
49215;Laerm;45943;53.148;8.204;2023-08-01T02:28:58;53.94;39.41;72.49;;
49215;Laerm;45943;53.148;8.204;2023-08-01T02:31:24;43.04;40.18;64.74;;
49215;Laerm;45943;53.148;8.204;2023-08-01T02:33:50;56.90;38.81;77.88;;
49215;Laerm;45943;53.148;8.204;2023-08-01T02:36:16;42.10;39.81;45.36;;
49215;Laerm;45943;53.148;8.204;2023-08-01T02:38:42;42.86;39.68;47.21;;
49215;Laerm;45943;53.148;8.204;2023-08-01T02:41:08;62.69;41.40;74.30;;
49215;Laerm;45943;53.148;8.204;2023-08-01T02:43:34;43.42;40.30;62.57;;
49215;Laerm;45943;53.148;8.204;2023-08-01T02:46:02;42.87;40.30;45.36;;
49215;Laerm;45943;53.148;8.204;2023-08-01T02:48:27;42.53;40.06;44.28;;
49215;Laerm;45943;53.148;8.204;2023-08-01T02:50:54;43.23;40.63;61.76;;
49215;Laerm;45943;53.148;8.204;2023-08-01T02:53:19;42.29;39.27;44.95;;
49215;Laerm;45943;53.148;8.204;2023-08-01T02:55:45;42.57;39.81;45.77;;
49215;Laerm;45943;53.148;8.204;2023-08-01T02:58:14;42.82;40.18;46.90;;
49215;Laerm;45943;53.148;8.204;2023-08-01T03:00:40;42.72;39.41;60.86;;
49215;Laerm;45943;53.148;8.204;2023-08-01T03:03:06;59.82;39.55;71.85;;
49215;Laerm;45943;53.148;8.204;2023-08-01T03:05:34;57.84;40.06;74.90;;
49215;Laerm;45943;53.148;8.204;2023-08-01T03:08:01;42.86;40.18;45.83;;
49215;Laerm;45943;53.148;8.204;2023-08-01T03:10:26;42.65;39.81;52.73;;
49215;Laerm;45943;53.148;8.204;2023-08-01T03:12:52;42.77;39.68;57.22;;
49215;Laerm;45943;53.148;8.204;2023-08-01T03:15:18;42.81;40.52;49.20;;
49215;Laerm;45943;53.148;8.204;2023-08-01T03:17:44;49.76;40.41;69.17;;
49215;Laerm;45943;53.148;8.204;2023-08-01T03:20:10;56.25;40.73;72.39;;
49215;Laerm;45943;53.148;8.204;2023-08-01T03:22:40;43.63;40.63;64.19;;
49215;Laerm;45943;53.148;8.204;2023-08-01T03:25:06;42.98;39.68;52.50;;
49215;Laerm;45943;53.148;8.204;2023-08-01T03:27:36;49.61;41.13;69.55;;
49215;Laerm;45943;53.148;8.204;2023-08-01T03:30:02;50.58;40.52;69.51;;
49215;Laerm;45943;53.148;8.204;2023-08-01T03:32:30;48.95;41.63;67.93;;
49215;Laerm;45943;53.148;8.204;2023-08-01T03:34:56;53.93;42.69;74.25;;
49215;Laerm;45943;53.148;8.204;2023-08-01T03:37:22;55.51;47.78;81.93;;
49215;Laerm;45943;53.148;8.204;2023-08-01T03:39:48;58.75;46.20;75.24;;
49215;Laerm;45943;53.148;8.204;2023-08-01T03:42:14;53.08;43.64;70.92;;
49215;Laerm;45943;53.148;8.204;2023-08-01T03:44:40;46.13;42.76;65.32;;
49215;Laerm;45943;53.148;8.204;2023-08-01T03:47:06;49.38;42.21;68.88;;
49215;Laerm;45943;53.148;8.204;2023-08-01T03:49:32;46.86;42.13;62.62;;
49215;Laerm;45943;53.148;8.204;2023-08-01T03:51:58;49.55;42.13;63.49;;
49215;Laerm;45943;53.148;8.204;2023-08-01T03:54:24;52.87;41.66;70.01;;
49215;Laerm;45943;53.148;8.204;2023-08-01T03:56:50;49.27;41.74;66.71;;
49215;Laerm;45943;53.148;8.204;2023-08-01T03:59:17;53.74;41.58;73.55;;
49215;Laerm;45943;53.148;8.204;2023-08-01T04:01:43;48.75;41.40;60.90;;
49215;Laerm;45943;53.148;8.204;2023-08-01T04:04:10;52.22;42.06;70.81;;
49215;Laerm;45943;53.148;8.204;2023-08-01T04:06:36;46.16;41.98;60.79;;
49215;Laerm;45943;53.148;8.204;2023-08-01T04:09:02;47.54;41.82;60.68;;
49215;Laerm;45943;53.148;8.204;2023-08-01T04:11:28;59.32;42.06;81.91;;
49215;Laerm;45943;53.148;8.204;2023-08-01T04:13:56;49.26;41.13;65.40;;
49215;Laerm;45943;53.148;8.204;2023-08-01T04:16:22;44.24;42.21;56.73;;
49215;Laerm;45943;53.148;8.204;2023-08-01T04:18:48;44.20;41.98;48.10;;
49215;Laerm;45943;53.148;8.204;2023-08-01T04:21:14;46.97;42.28;59.68;;
49215;Laerm;45943;53.148;8.204;2023-08-01T04:23:41;55.96;42.69;72.02;;
49215;Laerm;45943;53.148;8.204;2023-08-01T04:26:07;45.82;42.56;58.64;;
49215;Laerm;45943;53.148;8.204;2023-08-01T04:28:34;48.98;42.56;62.69;;
49215;Laerm;45943;53.148;8.204;2023-08-01T04:31:00;47.51;42.42;65.88;;
49215;Laerm;45943;53.148;8.204;2023-08-01T04:33:27;46.59;42.82;60.39;;
49215;Laerm;45943;53.148;8.204;2023-08-01T04:35:53;49.26;42.06;61.90;;
49215;Laerm;45943;53.148;8.204;2023-08-01T04:38:19;50.79;42.49;66.19;;
49215;Laerm;45943;53.148;8.204;2023-08-01T04:40:45;55.61;42.76;71.59;;
49215;Laerm;45943;53.148;8.204;2023-08-01T04:43:11;54.92;42.76;69.32;;
49215;Laerm;45943;53.148;8.204;2023-08-01T04:45:37;53.45;42.06;72.39;;
49215;Laerm;45943;53.148;8.204;2023-08-01T04:48:04;52.93;43.31;68.51;;
49215;Laerm;45943;53.148;8.204;2023-08-01T04:50:30;51.48;43.74;68.97;;
49215;Laerm;45943;53.148;8.204;2023-08-01T04:52:55;56.03;43.48;70.82;;
49215;Laerm;45943;53.148;8.204;2023-08-01T04:55:21;55.81;43.99;71.08;;
49215;Laerm;45943;53.148;8.204;2023-08-01T04:57:47;52.26;42.63;64.75;;
49215;Laerm;45943;53.148;8.204;2023-08-01T05:00:14;52.06;43.25;68.66;;
49215;Laerm;45943;53.148;8.204;2023-08-01T05:02:40;52.69;42.76;67.93;;
49215;Laerm;45943;53.148;8.204;2023-08-01T05:05:06;51.91;43.01;69.75;;
49215;Laerm;45943;53.148;8.204;2023-08-01T05:07:32;54.72;42.82;69.71;;
49215;Laerm;45943;53.148;8.204;2023-08-01T05:09:58;56.75;43.25;75.70;;
49215;Laerm;45943;53.148;8.204;2023-08-01T05:12:24;48.28;42.82;65.25;;
49215;Laerm;45943;53.148;8.204;2023-08-01T05:14:50;48.24;43.25;64.79;;
49215;Laerm;45943;53.148;8.204;2023-08-01T05:17:16;62.40;42.76;82.32;;
49215;Laerm;45943;53.148;8.204;2023-08-01T05:19:42;50.03;42.69;66.46;;
49215;Laerm;45943;53.148;8.204;2023-08-01T05:22:08;53.97;43.07;69.62;;
49215;Laerm;45943;53.148;8.204;2023-08-01T05:24:34;54.53;42.82;71.51;;
49215;Laerm;45943;53.148;8.204;2023-08-01T05:27:00;54.19;43.19;69.55;;
49215;Laerm;45943;53.148;8.204;2023-08-01T05:29:26;54.83;42.49;71.43;;
49215;Laerm;45943;53.148;8.204;2023-08-01T05:31:52;49.62;43.19;65.57;;
49215;Laerm;45943;53.148;8.204;2023-08-01T05:34:18;53.79;43.13;68.93;;
49215;Laerm;45943;53.148;8.204;2023-08-01T05:36:44;56.49;48.65;69.84;;
49215;Laerm;45943;53.148;8.204;2023-08-01T05:39:10;57.20;46.38;70.19;;
49215;Laerm;45943;53.148;8.204;2023-08-01T05:41:36;66.72;43.07;79.18;;
49215;Laerm;45943;53.148;8.204;2023-08-01T05:44:03;53.21;42.42;67.44;;
49215;Laerm;45943;53.148;8.204;2023-08-01T05:46:29;54.70;42.76;70.48;;
49215;Laerm;45943;53.148;8.204;2023-08-01T05:48:55;54.42;42.69;68.87;;
49215;Laerm;45943;53.148;8.204;2023-08-01T05:51:21;54.04;43.19;68.19;;
49215;Laerm;45943;53.148;8.204;2023-08-01T05:53:47;54.25;43.01;67.21;;
49215;Laerm;45943;53.148;8.204;2023-08-01T05:56:13;54.21;42.21;67.95;;
49215;Laerm;45943;53.148;8.204;2023-08-01T05:58:39;52.64;42.76;65.99;;
49215;Laerm;45943;53.148;8.204;2023-08-01T06:01:05;55.54;44.46;67.16;;
49215;Laerm;45943;53.148;8.204;2023-08-01T06:03:31;55.13;46.51;66.92;;
49215;Laerm;45943;53.148;8.204;2023-08-01T06:05:57;56.18;46.05;71.53;;
49215;Laerm;45943;53.148;8.204;2023-08-01T06:08:23;53.89;43.79;71.22;;
49215;Laerm;45943;53.148;8.204;2023-08-01T06:10:49;54.40;44.09;67.57;;
49215;Laerm;45943;53.148;8.204;2023-08-01T06:13:16;54.98;45.99;66.92;;
49215;Laerm;45943;53.148;8.204;2023-08-01T06:15:42;54.38;44.14;69.25;;
49215;Laerm;45943;53.148;8.204;2023-08-01T06:18:08;53.70;43.53;70.86;;
49215;Laerm;45943;53.148;8.204;2023-08-01T06:20:34;55.23;43.79;67.97;;
49215;Laerm;45943;53.148;8.204;2023-08-01T06:23:00;59.39;44.75;74.54;;
49215;Laerm;45943;53.148;8.204;2023-08-01T06:25:26;55.47;44.79;69.17;;
49215;Laerm;45943;53.148;8.204;2023-08-01T06:27:52;52.53;44.59;65.48;;
49215;Laerm;45943;53.148;8.204;2023-08-01T06:30:18;53.71;43.99;69.41;;
49215;Laerm;45943;53.148;8.204;2023-08-01T06:32:43;52.90;43.42;67.71;;
49215;Laerm;45943;53.148;8.204;2023-08-01T06:35:09;52.98;43.74;65.94;;
49215;Laerm;45943;53.148;8.204;2023-08-01T06:37:35;56.93;44.18;70.34;;
49215;Laerm;45943;53.148;8.204;2023-08-01T06:40:01;57.57;44.63;71.71;;
49215;Laerm;45943;53.148;8.204;2023-08-01T06:42:28;54.07;44.41;70.79;;
49215;Laerm;45943;53.148;8.204;2023-08-01T06:44:54;52.53;43.84;68.12;;
49215;Laerm;45943;53.148;8.204;2023-08-01T06:47:20;48.70;44.23;64.64;;
49215;Laerm;45943;53.148;8.204;2023-08-01T06:49:46;54.68;44.14;67.61;;
49215;Laerm;45943;53.148;8.204;2023-08-01T06:52:12;57.40;45.18;69.08;;
49215;Laerm;45943;53.148;8.204;2023-08-01T06:54:38;58.98;45.80;74.35;;
49215;Laerm;45943;53.148;8.204;2023-08-01T06:57:06;54.52;44.50;68.32;;
49215;Laerm;45943;53.148;8.204;2023-08-01T06:59:32;51.36;44.54;67.43;;
49215;Laerm;45943;53.148;8.204;2023-08-01T07:01:58;55.03;43.53;69.71;;
49215;Laerm;45943;53.148;8.204;2023-08-01T07:04:24;57.53;44.41;75.33;;
49215;Laerm;45943;53.148;8.204;2023-08-01T07:06:50;52.57;44.37;64.69;;
49215;Laerm;45943;53.148;8.204;2023-08-01T07:09:16;57.74;44.40;74.29;;
49215;Laerm;45943;53.148;8.204;2023-08-01T07:11:42;53.59;43.64;66.95;;
49215;Laerm;45943;53.148;8.204;2023-08-01T07:14:08;53.70;43.01;67.85;;
49215;Laerm;45943;53.148;8.204;2023-08-01T07:16:34;53.49;43.79;68.03;;
49215;Laerm;45943;53.148;8.204;2023-08-01T07:19:01;51.87;43.69;66.30;;
49215;Laerm;45943;53.148;8.204;2023-08-01T07:21:27;58.11;43.31;73.56;;
49215;Laerm;45943;53.148;8.204;2023-08-01T07:23:54;57.76;43.36;77.51;;
49215;Laerm;45943;53.148;8.204;2023-08-01T07:26:20;52.92;43.13;70.81;;
49215;Laerm;45943;53.148;8.204;2023-08-01T07:28:46;52.59;42.69;70.19;;
49215;Laerm;45943;53.148;8.204;2023-08-01T07:31:12;55.34;42.95;78.39;;
49215;Laerm;45943;53.148;8.204;2023-08-01T07:33:38;53.32;43.07;66.87;;
49215;Laerm;45943;53.148;8.204;2023-08-01T07:36:04;52.75;43.74;68.56;;
49215;Laerm;45943;53.148;8.204;2023-08-01T07:38:30;61.56;45.47;80.44;;
49215;Laerm;45943;53.148;8.204;2023-08-01T07:41:02;55.38;43.58;70.80;;
49215;Laerm;45943;53.148;8.204;2023-08-01T07:43:28;53.76;44.14;67.82;;
49215;Laerm;45943;53.148;8.204;2023-08-01T07:45:58;50.25;43.79;65.46;;
49215;Laerm;45943;53.148;8.204;2023-08-01T07:48:24;56.63;44.59;70.46;;
49215;Laerm;45943;53.148;8.204;2023-08-01T07:50:50;64.31;44.95;84.85;;
49215;Laerm;45943;53.148;8.204;2023-08-01T07:53:16;55.55;43.58;68.53;;
49215;Laerm;45943;53.148;8.204;2023-08-01T07:55:42;54.06;44.75;67.14;;
49215;Laerm;45943;53.148;8.204;2023-08-01T07:58:08;52.51;44.32;67.75;;
49215;Laerm;45943;53.148;8.204;2023-08-01T08:00:35;64.50;43.89;95.44;;
49215;Laerm;45943;53.148;8.204;2023-08-01T08:03:01;53.12;43.94;67.61;;
49215;Laerm;45943;53.148;8.204;2023-08-01T08:05:27;53.87;44.59;67.56;;
49215;Laerm;45943;53.148;8.204;2023-08-01T08:07:53;54.67;43.89;67.45;;
49215;Laerm;45943;53.148;8.204;2023-08-01T08:10:19;49.60;43.58;62.67;;
49215;Laerm;45943;53.148;8.204;2023-08-01T08:12:45;53.48;44.04;67.85;;
49215;Laerm;45943;53.148;8.204;2023-08-01T08:15:11;45.17;43.19;49.66;;
49215;Laerm;45943;53.148;8.204;2023-08-01T08:17:39;54.84;43.65;71.82;;
49215;Laerm;45943;53.148;8.204;2023-08-01T08:20:05;56.07;43.79;71.81;;
49215;Laerm;45943;53.148;8.204;2023-08-01T08:22:32;53.27;44.57;67.68;;
49215;Laerm;45943;53.148;8.204;2023-08-01T08:24:57;49.91;43.01;63.30;;
49215;Laerm;45943;53.148;8.204;2023-08-01T08:27:24;53.12;44.91;68.66;;
49215;Laerm;45943;53.148;8.204;2023-08-01T08:29:50;52.89;44.18;67.34;;
49215;Laerm;45943;53.148;8.204;2023-08-01T08:32:16;59.69;44.83;78.20;;
49215;Laerm;45943;53.148;8.204;2023-08-01T08:34:42;61.85;45.11;71.23;;
49215;Laerm;45943;53.148;8.204;2023-08-01T08:37:08;56.05;43.39;69.56;;
49215;Laerm;45943;53.148;8.204;2023-08-01T08:39:34;54.74;43.84;71.48;;
49215;Laerm;45943;53.148;8.204;2023-08-01T08:42:00;57.00;43.84;73.20;;
49215;Laerm;45943;53.148;8.204;2023-08-01T08:44:26;51.71;43.48;66.81;;
49215;Laerm;45943;53.148;8.204;2023-08-01T08:47:02;52.93;44.14;67.78;;
49215;Laerm;45943;53.148;8.204;2023-08-01T08:49:32;54.28;45.90;67.89;;
49215;Laerm;45943;53.148;8.204;2023-08-01T08:51:58;55.58;45.77;68.52;;
49215;Laerm;45943;53.148;8.204;2023-08-01T08:54:24;55.39;45.64;68.70;;
49215;Laerm;45943;53.148;8.204;2023-08-01T08:56:51;53.96;44.79;68.93;;
49215;Laerm;45943;53.148;8.204;2023-08-01T08:59:17;55.75;44.09;70.35;;
49215;Laerm;45943;53.148;8.204;2023-08-01T09:01:44;52.44;43.94;67.72;;
49215;Laerm;45943;53.148;8.204;2023-08-01T09:04:11;52.44;44.23;67.78;;
49215;Laerm;45943;53.148;8.204;2023-08-01T09:06:44;53.30;44.04;68.28;;
49215;Laerm;45943;53.148;8.204;2023-08-01T09:09:14;51.84;44.23;70.99;;
49215;Laerm;45943;53.148;8.204;2023-08-01T09:11:50;51.50;43.99;67.08;;
49215;Laerm;45943;53.148;8.204;2023-08-01T09:14:17;52.53;44.18;68.74;;
49215;Laerm;45943;53.148;8.204;2023-08-01T09:16:44;54.01;43.79;66.25;;
49215;Laerm;45943;53.148;8.204;2023-08-01T09:19:19;55.05;45.18;70.84;;
49215;Laerm;45943;53.148;8.204;2023-08-01T09:21:46;49.60;45.07;62.13;;
49215;Laerm;45943;53.148;8.204;2023-08-01T09:24:19;58.66;44.72;77.38;;
49215;Laerm;45943;53.148;8.204;2023-08-01T09:26:48;56.04;46.65;72.69;;
49215;Laerm;45943;53.148;8.204;2023-08-01T09:29:17;56.27;45.61;70.91;;
49215;Laerm;45943;53.148;8.204;2023-08-01T09:31:43;50.06;44.63;65.79;;
49215;Laerm;45943;53.148;8.204;2023-08-01T09:34:20;53.97;44.54;67.49;;
49215;Laerm;45943;53.148;8.204;2023-08-01T09:36:47;53.99;44.50;67.47;;
49215;Laerm;45943;53.148;8.204;2023-08-01T09:39:17;52.06;44.32;67.96;;
49215;Laerm;45943;53.148;8.204;2023-08-01T09:41:44;58.47;44.50;72.48;;
49215;Laerm;45943;53.148;8.204;2023-08-01T09:44:11;51.23;44.91;66.20;;
49215;Laerm;45943;53.148;8.204;2023-08-01T09:46:37;53.79;45.26;66.70;;
49215;Laerm;45943;53.148;8.204;2023-08-01T09:49:08;52.97;44.02;69.16;;
49215;Laerm;45943;53.148;8.204;2023-08-01T09:51:46;55.52;44.54;71.47;;
49215;Laerm;45943;53.148;8.204;2023-08-01T09:54:12;53.78;45.25;64.76;;
49215;Laerm;45943;53.148;8.204;2023-08-01T09:56:40;53.31;46.29;69.25;;
49215;Laerm;45943;53.148;8.204;2023-08-01T09:59:10;54.87;45.57;67.36;;
49215;Laerm;45943;53.148;8.204;2023-08-01T10:01:38;54.41;44.95;66.49;;
49215;Laerm;45943;53.148;8.204;2023-08-01T10:04:06;55.38;44.54;68.33;;
49215;Laerm;45943;53.148;8.204;2023-08-01T10:06:36;54.75;44.23;68.15;;
49215;Laerm;45943;53.148;8.204;2023-08-01T10:09:04;54.69;43.74;71.53;;
49215;Laerm;45943;53.148;8.204;2023-08-01T10:11:34;54.31;44.37;68.46;;
49215;Laerm;45943;53.148;8.204;2023-08-01T10:14:02;54.97;44.46;73.78;;
49215;Laerm;45943;53.148;8.204;2023-08-01T10:16:28;55.25;44.41;68.95;;
49215;Laerm;45943;53.148;8.204;2023-08-01T10:18:56;53.75;44.67;66.13;;
49215;Laerm;45943;53.148;8.204;2023-08-01T10:21:22;53.00;44.63;67.26;;
49215;Laerm;45943;53.148;8.204;2023-08-01T10:23:49;58.71;45.74;72.14;;
49215;Laerm;45943;53.148;8.204;2023-08-01T10:26:16;53.46;45.93;68.55;;
49215;Laerm;45943;53.148;8.204;2023-08-01T10:28:50;66.75;46.02;78.50;;
49215;Laerm;45943;53.148;8.204;2023-08-01T10:31:17;55.10;44.79;67.44;;
49215;Laerm;45943;53.148;8.204;2023-08-01T10:33:47;54.04;45.47;66.56;;
49215;Laerm;45943;53.148;8.204;2023-08-01T10:36:18;54.86;45.43;68.52;;
49215;Laerm;45943;53.148;8.204;2023-08-01T10:38:57;54.75;44.46;66.79;;
49215;Laerm;45943;53.148;8.204;2023-08-01T10:41:39;54.66;44.87;68.67;;
49215;Laerm;45943;53.148;8.204;2023-08-01T10:44:15;57.85;45.67;74.62;;
49215;Laerm;45943;53.148;8.204;2023-08-01T10:46:58;54.36;43.94;70.62;;
49215;Laerm;45943;53.148;8.204;2023-08-01T10:49:41;55.07;46.59;66.24;;
49215;Laerm;45943;53.148;8.204;2023-08-01T10:52:22;55.44;47.05;73.67;;
49215;Laerm;45943;53.148;8.204;2023-08-01T10:57:30;54.65;45.83;69.62;;
49215;Laerm;45943;53.148;8.204;2023-08-01T10:59:58;56.00;45.80;77.55;;
49215;Laerm;45943;53.148;8.204;2023-08-01T11:02:28;50.52;44.87;65.00;;
49215;Laerm;45943;53.148;8.204;2023-08-01T11:05:06;49.24;43.42;66.44;;
49215;Laerm;45943;53.148;8.204;2023-08-01T11:07:33;54.58;43.69;72.28;;
49215;Laerm;45943;53.148;8.204;2023-08-01T11:10:13;53.31;43.79;67.01;;
49215;Laerm;45943;53.148;8.204;2023-08-01T11:12:41;48.96;44.32;64.56;;
49215;Laerm;45943;53.148;8.204;2023-08-01T11:15:10;59.02;43.79;75.11;;
49215;Laerm;45943;53.148;8.204;2023-08-01T11:17:38;62.08;44.32;76.01;;
49215;Laerm;45943;53.148;8.204;2023-08-01T11:20:05;53.19;43.42;70.21;;
49215;Laerm;45943;53.148;8.204;2023-08-01T11:22:36;56.34;44.67;73.05;;
49215;Laerm;45943;53.148;8.204;2023-08-01T11:25:03;51.72;44.59;65.79;;
49215;Laerm;45943;53.148;8.204;2023-08-01T11:27:29;55.96;43.84;66.87;;
49215;Laerm;45943;53.148;8.204;2023-08-01T11:29:56;58.99;47.92;69.58;;
49215;Laerm;45943;53.148;8.204;2023-08-01T11:32:32;58.04;48.48;71.08;;
49215;Laerm;45943;53.148;8.204;2023-08-01T11:34:58;57.36;47.42;72.33;;
49215;Laerm;45943;53.148;8.204;2023-08-01T11:37:26;54.78;48.30;66.96;;
49215;Laerm;45943;53.148;8.204;2023-08-01T11:39:52;64.81;53.76;73.25;;
49215;Laerm;45943;53.148;8.204;2023-08-01T11:42:19;56.28;45.14;73.09;;
49215;Laerm;45943;53.148;8.204;2023-08-01T11:44:45;55.76;44.28;70.79;;
49215;Laerm;45943;53.148;8.204;2023-08-01T11:47:15;55.41;44.06;71.33;;
49215;Laerm;45943;53.148;8.204;2023-08-01T11:49:46;51.64;44.14;67.47;;
49215;Laerm;45943;53.148;8.204;2023-08-01T11:52:26;58.39;44.50;71.72;;
49215;Laerm;45943;53.148;8.204;2023-08-01T11:54:53;55.38;45.90;68.24;;
49215;Laerm;45943;53.148;8.204;2023-08-01T11:57:21;56.40;44.75;70.34;;
49215;Laerm;45943;53.148;8.204;2023-08-01T11:59:57;55.02;45.36;69.16;;
49215;Laerm;45943;53.148;8.204;2023-08-01T12:02:26;55.90;45.22;70.16;;
49215;Laerm;45943;53.148;8.204;2023-08-01T12:04:53;54.72;43.64;70.17;;
49215;Laerm;45943;53.148;8.204;2023-08-01T12:07:20;52.44;45.11;66.84;;
49215;Laerm;45943;53.148;8.204;2023-08-01T12:10:01;56.04;44.71;74.41;;
49215;Laerm;45943;53.148;8.204;2023-08-01T12:12:28;56.78;44.67;70.43;;
49215;Laerm;45943;53.148;8.204;2023-08-01T12:14:55;56.13;45.47;70.85;;
49215;Laerm;45943;53.148;8.204;2023-08-01T12:17:22;55.67;44.79;71.23;;
49215;Laerm;45943;53.148;8.204;2023-08-01T12:19:48;52.33;44.67;66.30;;
49215;Laerm;45943;53.148;8.204;2023-08-01T12:22:14;57.39;45.61;73.01;;
49215;Laerm;45943;53.148;8.204;2023-08-01T12:24:40;57.01;47.00;79.11;;
49215;Laerm;45943;53.148;8.204;2023-08-01T12:27:07;64.05;54.89;75.57;;
49215;Laerm;45943;53.148;8.204;2023-08-01T12:29:33;58.07;52.88;74.14;;
49215;Laerm;45943;53.148;8.204;2023-08-01T12:31:59;60.14;52.12;75.21;;
49215;Laerm;45943;53.148;8.204;2023-08-01T12:34:25;57.17;49.27;73.20;;
49215;Laerm;45943;53.148;8.204;2023-08-01T12:36:51;56.23;47.19;72.55;;
49215;Laerm;45943;53.148;8.204;2023-08-01T12:39:17;59.31;46.59;74.55;;
49215;Laerm;45943;53.148;8.204;2023-08-01T12:41:43;53.08;45.57;68.17;;
49215;Laerm;45943;53.148;8.204;2023-08-01T12:44:09;59.28;45.54;72.71;;
49215;Laerm;45943;53.148;8.204;2023-08-01T12:46:35;56.23;44.99;71.55;;
49215;Laerm;45943;53.148;8.204;2023-08-01T12:49:01;56.63;44.14;69.90;;
49215;Laerm;45943;53.148;8.204;2023-08-01T12:51:28;58.22;43.94;73.80;;
49215;Laerm;45943;53.148;8.204;2023-08-01T12:53:54;53.97;44.32;68.25;;
49215;Laerm;45943;53.148;8.204;2023-08-01T12:56:20;54.50;43.25;68.05;;
49215;Laerm;45943;53.148;8.204;2023-08-01T12:58:46;55.40;44.41;68.69;;
49215;Laerm;45943;53.148;8.204;2023-08-01T13:01:12;57.87;44.41;73.59;;
49215;Laerm;45943;53.148;8.204;2023-08-01T13:03:38;56.81;43.42;71.56;;
49215;Laerm;45943;53.148;8.204;2023-08-01T13:06:04;53.06;43.99;70.52;;
49215;Laerm;45943;53.148;8.204;2023-08-01T13:08:30;57.43;45.22;72.99;;
49215;Laerm;45943;53.148;8.204;2023-08-01T13:10:56;55.83;44.63;68.52;;
49215;Laerm;45943;53.148;8.204;2023-08-01T13:13:25;54.75;44.54;67.66;;
49215;Laerm;45943;53.148;8.204;2023-08-01T13:15:51;56.82;44.14;70.47;;
49215;Laerm;45943;53.148;8.204;2023-08-01T13:18:17;63.57;43.01;82.77;;
49215;Laerm;45943;53.148;8.204;2023-08-01T13:20:43;55.26;42.28;68.12;;
49215;Laerm;45943;53.148;8.204;2023-08-01T13:23:09;56.27;43.58;71.50;;
49215;Laerm;45943;53.148;8.204;2023-08-01T13:25:35;53.66;43.58;67.86;;
49215;Laerm;45943;53.148;8.204;2023-08-01T13:28:01;53.36;42.76;67.56;;
49215;Laerm;45943;53.148;8.204;2023-08-01T13:30:27;55.27;44.23;68.93;;
49215;Laerm;45943;53.148;8.204;2023-08-01T13:32:53;56.93;45.03;69.99;;
49215;Laerm;45943;53.148;8.204;2023-08-01T13:35:19;53.61;44.50;65.67;;
49215;Laerm;45943;53.148;8.204;2023-08-01T13:37:45;55.53;45.18;66.91;;
49215;Laerm;45943;53.148;8.204;2023-08-01T13:40:11;61.71;45.93;77.75;;
49215;Laerm;45943;53.148;8.204;2023-08-01T13:42:40;55.05;44.59;71.95;;
49215;Laerm;45943;53.148;8.204;2023-08-01T13:45:06;56.12;45.36;71.46;;